Time,TemperatureF,DewpointF,PressureIn,WindDirection,WindDirectionDegrees,WindSpeedMPH,WindSpeedGustMPH,Humidity,HourlyPrecipIn,Conditions,Clouds,dailyrainin,SoftwareType,DateUTC
2013-03-09 00:13:00,27.0,26.5,29.35,SW,225,1.7,-999.0,98,-99.99,,,0.00,Acu-Link.com,2013-03-09 07:13:00,
2013-03-09 00:28:00,26.2,25.7,29.36,NNE,22,0.0,-999.0,98,-99.99,,,0.00,Acu-Link.com,2013-03-09 07:28:00,
2013-03-09 00:44:00,25.0,24.5,29.34,ENE,67,0.0,-999.0,98,-99.99,,,0.00,Acu-Link.com,2013-03-09 07:44:00,
2013-03-09 00:59:00,25.2,24.7,29.34,SW,225,0.0,-999.0,98,-99.99,,,0.00,Acu-Link.com,2013-03-09 07:59:00,
2013-03-09 01:14:00,25.5,25.0,29.35,ESE,112,0.0,-999.0,98,-99.99,,,0.00,Acu-Link.com,2013-03-09 08:14:00,
2013-03-09 01:29:00,26.4,25.9,29.34,NNW,337,0.0,-999.0,98,-99.99,,,0.00,Acu-Link.com,2013-03-09 08:29:00,
2013-03-09 01:44:00,27.1,26.6,29.34,ENE,67,0.0,-999.0,98,-99.99,,,0.00,Acu-Link.com,2013-03-09 08:44:00,
2013-03-09 02:00:00,27.3,26.8,29.33,WSW,247,0.0,-999.0,98,-99.99,,,0.00,Acu-Link.com,2013-03-09 09:00:00,
2013-03-09 02:15:00,27.1,26.6,29.33,NNE,22,0.0,-999.0,98,-99.99,,,0.00,Acu-Link.com,2013-03-09 09:15:00,
2013-03-09 02:30:00,27.0,26.5,29.32,NNE,22,0.0,-999.0,98,-99.99,,,0.00,Acu-Link.com,2013-03-09 09:30:00,
2013-03-09 02:45:00,26.6,26.1,29.32,West,270,0.0,-999.0,98,-99.99,,,0.00,Acu-Link.com,2013-03-09 09:45:00,
2013-03-09 03:00:00,26.6,26.1,29.30,East,90,0.0,-999.0,98,-99.99,,,0.00,Acu-Link.com,2013-03-09 10:00:00,
2013-03-09 03:15:00,26.6,26.1,29.30,North,0,2.2,-999.0,98,-99.99,,,0.00,Acu-Link.com,2013-03-09 10:15:00,
2013-03-09 03:31:00,27.0,26.5,29.30,SW,225,3.7,-999.0,98,-99.99,,,0.00,Acu-Link.com,2013-03-09 10:31:00,
2013-03-09 03:46:00,26.6,26.1,29.30,SSW,202,0.0,-999.0,98,-99.99,,,0.00,Acu-Link.com,2013-03-09 10:46:00,
2013-03-09 04:01:00,26.6,26.1,29.29,NNW,337,0.0,-999.0,98,-99.99,,,0.00,Acu-Link.com,2013-03-09 11:01:00,
2013-03-09 04:16:00,26.6,26.1,29.31,ENE,67,0.0,-999.0,98,-99.99,,,0.00,Acu-Link.com,2013-03-09 11:16:00,
2013-03-09 04:32:00,26.8,26.3,29.30,NE,45,0.0,-999.0,98,-99.99,,,0.00,Acu-Link.com,2013-03-09 11:32:00,
2013-03-09 04:47:00,26.8,26.3,29.29,NE,45,0.0,-999.0,98,-99.99,,,0.00,Acu-Link.com,2013-03-09 11:47:00,
2013-03-09 05:03:00,26.8,26.3,29.30,NE,45,0.0,-999.0,98,-99.99,,,0.00,Acu-Link.com,2013-03-09 12:03:00,
2013-03-09 05:18:00,26.8,26.3,29.29,NNW,337,0.0,-999.0,98,-99.99,,,0.00,Acu-Link.com,2013-03-09 12:18:00,
2013-03-09 05:33:00,26.8,26.3,29.30,North,0,0.0,-999.0,98,-99.99,,,0.00,Acu-Link.com,2013-03-09 12:33:00,
2013-03-09 05:49:00,26.4,25.9,29.30,NNW,337,0.0,-999.0,98,-99.99,,,0.00,Acu-Link.com,2013-03-09 12:49:00,
2013-03-09 06:04:00,26.2,25.7,29.29,WSW,247,0.0,-999.0,98,-99.99,,,0.00,Acu-Link.com,2013-03-09 13:04:00,
2013-03-09 06:19:00,26.2,25.7,29.29,SSW,202,0.0,-999.0,98,-99.99,,,0.00,Acu-Link.com,2013-03-09 13:19:00,
2013-03-09 06:35:00,26.2,25.7,29.30,North,0,1.7,-999.0,98,-99.99,,,0.00,Acu-Link.com,2013-03-09 13:35:00,
2013-03-09 06:50:00,26.2,25.7,29.30,NNW,337,0.0,-999.0,98,-99.99,,,0.00,Acu-Link.com,2013-03-09 13:50:00,
2013-03-09 07:05:00,26.6,26.1,29.32,SW,225,2.7,-999.0,98,-99.99,,,0.00,Acu-Link.com,2013-03-09 14:05:00,
2013-03-09 07:20:00,27.0,26.5,29.31,WSW,247,2.2,-999.0,98,-99.99,,,0.00,Acu-Link.com,2013-03-09 14:20:00,
2013-03-09 07:36:00,27.3,26.8,29.32,South,180,2.2,-999.0,98,-99.99,,,0.00,Acu-Link.com,2013-03-09 14:36:00,
2013-03-09 07:51:00,26.8,26.3,29.31,SW,225,4.2,-999.0,98,-99.99,,,0.00,Acu-Link.com,2013-03-09 14:51:00,
2013-03-09 08:06:00,26.6,26.1,29.32,SW,225,4.2,-999.0,98,-99.99,,,0.00,Acu-Link.com,2013-03-09 15:06:00,
2013-03-09 08:22:00,27.1,26.6,29.32,West,270,3.7,-999.0,98,-99.99,,,0.00,Acu-Link.com,2013-03-09 15:22:00,
2013-03-09 08:37:00,28.4,27.4,29.33,WSW,247,3.7,-999.0,96,-99.99,,,0.00,Acu-Link.com,2013-03-09 15:37:00,
2013-03-09 08:52:00,30.9,26.1,29.33,SW,225,5.3,-999.0,82,-99.99,,,0.00,Acu-Link.com,2013-03-09 15:52:00,
2013-03-09 09:08:00,30.9,24.9,29.35,SSW,202,3.7,-999.0,78,-99.99,,,0.00,Acu-Link.com,2013-03-09 16:08:00,
2013-03-09 09:23:00,31.1,26.8,29.34,South,180,5.8,-999.0,84,-99.99,,,0.00,Acu-Link.com,2013-03-09 16:23:00,
2013-03-09 09:38:00,32.5,25.5,29.36,SSW,202,6.8,-999.0,75,-99.99,,,0.00,Acu-Link.com,2013-03-09 16:38:00,
2013-03-09 09:53:00,33.4,26.7,29.35,SW,225,8.9,-999.0,76,-99.99,,,0.00,Acu-Link.com,2013-03-09 16:53:00,
2013-03-09 10:08:00,32.2,24.9,29.35,SSW,202,6.8,-999.0,74,-99.99,,,0.00,Acu-Link.com,2013-03-09 17:08:00,
2013-03-09 10:24:00,30.9,24.6,29.35,SW,225,6.8,-999.0,77,-99.99,,,0.00,Acu-Link.com,2013-03-09 17:24:00,
2013-03-09 10:39:00,30.0,25.2,29.36,WSW,247,7.8,-999.0,82,-99.99,,,0.00,Acu-Link.com,2013-03-09 17:39:00,
2013-03-09 10:54:00,32.0,25.3,29.36,SSW,202,4.2,-999.0,76,-99.99,,,0.00,Acu-Link.com,2013-03-09 17:54:00,
2013-03-09 11:09:00,34.5,25.7,29.37,SW,225,6.8,-999.0,70,-99.99,,,0.00,Acu-Link.com,2013-03-09 18:09:00,
2013-03-09 11:24:00,38.5,26.2,29.37,WSW,247,5.3,-999.0,61,-99.99,,,0.00,Acu-Link.com,2013-03-09 18:24:00,
2013-03-09 11:40:00,41.2,26.3,29.36,WSW,247,7.3,-999.0,55,-99.99,,,0.00,Acu-Link.com,2013-03-09 18:40:00,
2013-03-09 11:55:00,40.8,26.3,29.37,WSW,247,6.8,-999.0,56,-99.99,,,0.00,Acu-Link.com,2013-03-09 18:55:00,
2013-03-09 12:10:00,40.6,26.6,29.36,SSW,202,7.8,-999.0,57,-99.99,,,0.00,Acu-Link.com,2013-03-09 19:10:00,
2013-03-09 12:25:00,38.3,25.6,29.37,SSW,202,7.8,-999.0,60,-99.99,,,0.00,Acu-Link.com,2013-03-09 19:25:00,
2013-03-09 12:40:00,36.3,24.2,29.37,WSW,247,8.3,-999.0,61,-99.99,,,0.00,Acu-Link.com,2013-03-09 19:40:00,
2013-03-09 12:56:00,37.2,25.0,29.36,SSW,202,9.9,-999.0,61,-99.99,,,0.00,Acu-Link.com,2013-03-09 19:56:00,
2013-03-09 13:11:00,34.2,23.3,29.36,SSW,202,8.3,-999.0,64,-99.99,,,0.00,Acu-Link.com,2013-03-09 20:11:00,
2013-03-09 13:26:00,33.6,22.7,29.36,SW,225,10.4,-999.0,64,-99.99,,,0.01,Acu-Link.com,2013-03-09 20:26:00,
2013-03-09 13:41:00,34.7,23.8,29.36,West,270,5.8,-999.0,64,-99.99,,,0.02,Acu-Link.com,2013-03-09 20:41:00,
2013-03-09 13:56:00,34.9,23.2,29.37,SW,225,7.8,-999.0,62,-99.99,,,0.03,Acu-Link.com,2013-03-09 20:56:00,
2013-03-09 14:11:00,33.8,23.3,29.37,SW,225,5.8,-999.0,65,-99.99,,,0.04,Acu-Link.com,2013-03-09 21:11:00,
2013-03-09 14:27:00,33.3,22.5,29.38,SW,225,5.8,-999.0,64,-99.99,,,0.05,Acu-Link.com,2013-03-09 21:27:00,
2013-03-09 14:42:00,32.4,23.4,29.39,West,270,9.4,-999.0,69,-99.99,,,0.05,Acu-Link.com,2013-03-09 21:42:00,
2013-03-09 14:57:00,32.9,23.9,29.40,SW,225,4.7,-999.0,69,-99.99,,,0.05,Acu-Link.com,2013-03-09 21:57:00,
2013-03-09 15:12:00,32.2,23.9,29.41,SW,225,7.8,-999.0,71,-99.99,,,0.05,Acu-Link.com,2013-03-09 22:12:00,
2013-03-09 15:27:00,32.0,24.0,29.42,SW,225,7.8,-999.0,72,-99.99,,,0.05,Acu-Link.com,2013-03-09 22:27:00,
2013-03-09 15:43:00,31.8,24.5,29.41,SW,225,7.8,-999.0,74,-99.99,,,0.05,Acu-Link.com,2013-03-09 22:43:00,
2013-03-09 15:58:00,31.6,24.6,29.42,West,270,7.3,-999.0,75,-99.99,,,0.05,Acu-Link.com,2013-03-09 22:58:00,
2013-03-09 16:13:00,31.6,25.2,29.42,SW,225,6.8,-999.0,77,-99.99,,,0.05,Acu-Link.com,2013-03-09 23:13:00,
2013-03-09 16:28:00,32.0,25.0,29.44,WSW,247,10.9,-999.0,75,-99.99,,,0.05,Acu-Link.com,2013-03-09 23:28:00,
2013-03-09 16:43:00,32.5,24.8,29.44,WNW,292,5.8,-999.0,73,-99.99,,,0.05,Acu-Link.com,2013-03-09 23:43:00,
2013-03-09 16:59:00,31.3,24.6,29.45,WSW,247,7.8,-999.0,76,-99.99,,,0.05,Acu-Link.com,2013-03-09 23:59:00,
2013-03-09 17:14:00,29.7,24.6,29.46,SSW,202,4.7,-999.0,81,-99.99,,,0.05,Acu-Link.com,2013-03-10 00:14:00,
2013-03-09 17:29:00,29.5,25.0,29.46,SW,225,3.7,-999.0,83,-99.99,,,0.05,Acu-Link.com,2013-03-10 00:29:00,
2013-03-09 17:44:00,28.9,24.7,29.47,WSW,247,2.7,-999.0,84,-99.99,,,0.05,Acu-Link.com,2013-03-10 00:44:00,
2013-03-09 18:00:00,27.9,24.3,29.48,SW,225,4.7,-999.0,86,-99.99,,,0.05,Acu-Link.com,2013-03-10 01:00:00,
2013-03-09 18:15:00,27.3,24.5,29.49,SSW,202,5.3,-999.0,89,-99.99,,,0.05,Acu-Link.com,2013-03-10 01:15:00,
2013-03-09 18:30:00,26.8,24.8,29.50,SSW,202,4.7,-999.0,92,-99.99,,,0.05,Acu-Link.com,2013-03-10 01:30:00,
2013-03-09 18:46:00,26.4,24.7,29.51,SW,225,5.8,-999.0,93,-99.99,,,0.05,Acu-Link.com,2013-03-10 01:46:00,
2013-03-09 19:01:00,26.1,24.6,29.52,West,270,2.2,-999.0,94,-99.99,,,0.05,Acu-Link.com,2013-03-10 02:01:00,
2013-03-09 19:16:00,25.3,24.8,29.54,SSE,157,3.7,-999.0,98,-99.99,,,0.05,Acu-Link.com,2013-03-10 02:16:00,
2013-03-09 19:31:00,23.9,23.4,29.54,South,180,3.7,-999.0,98,-99.99,,,0.05,Acu-Link.com,2013-03-10 02:31:00,
2013-03-09 19:47:00,21.9,21.4,29.55,SSW,202,0.0,-999.0,98,-99.99,,,0.05,Acu-Link.com,2013-03-10 02:47:00,
2013-03-09 20:02:00,20.8,20.3,29.55,NNW,337,2.2,-999.0,98,-99.99,,,0.05,Acu-Link.com,2013-03-10 03:02:00,
2013-03-09 20:17:00,19.9,19.4,29.56,South,180,0.0,-999.0,98,-99.99,,,0.05,Acu-Link.com,2013-03-10 03:17:00,
2013-03-09 20:33:00,19.0,18.5,29.58,NE,45,2.7,-999.0,98,-99.99,,,0.05,Acu-Link.com,2013-03-10 03:33:00,
2013-03-09 20:48:00,19.6,19.1,29.58,SW,225,0.0,-999.0,98,-99.99,,,0.05,Acu-Link.com,2013-03-10 03:48:00,
2013-03-09 21:03:00,19.8,19.3,29.59,West,270,1.7,-999.0,98,-99.99,,,0.05,Acu-Link.com,2013-03-10 04:03:00,
2013-03-09 21:19:00,20.5,20.0,29.60,West,270,0.0,-999.0,98,-99.99,,,0.05,Acu-Link.com,2013-03-10 04:19:00,
2013-03-09 21:34:00,21.9,21.4,29.60,West,270,2.2,-999.0,98,-99.99,,,0.05,Acu-Link.com,2013-03-10 04:34:00,
2013-03-09 21:49:00,21.6,21.1,29.60,WSW,247,0.0,-999.0,98,-99.99,,,0.05,Acu-Link.com,2013-03-10 04:49:00,
2013-03-09 22:04:00,19.8,19.3,29.62,WNW,292,2.7,-999.0,98,-99.99,,,0.05,Acu-Link.com,2013-03-10 05:04:00,
2013-03-09 22:20:00,18.5,18.0,29.62,NNW,337,0.0,-999.0,98,-99.99,,,0.05,Acu-Link.com,2013-03-10 05:20:00,
2013-03-09 22:35:00,17.1,16.6,29.62,North,0,3.2,-999.0,98,-99.99,,,0.05,Acu-Link.com,2013-03-10 05:35:00,
2013-03-09 22:50:00,17.2,16.7,29.62,North,0,4.2,-999.0,98,-99.99,,,0.05,Acu-Link.com,2013-03-10 05:50:00,
2013-03-09 23:06:00,15.1,14.6,29.62,NNW,337,0.0,-999.0,98,-99.99,,,0.05,Acu-Link.com,2013-03-10 06:06:00,
2013-03-09 23:21:00,14.0,13.5,29.62,NW,315,1.7,-999.0,98,-99.99,,,0.05,Acu-Link.com,2013-03-10 06:21:00,
2013-03-09 23:36:00,14.2,13.7,29.62,West,270,0.0,-999.0,98,-99.99,,,0.05,Acu-Link.com,2013-03-10 06:36:00,
2013-03-09 23:51:00,13.8,13.3,29.62,WSW,247,2.2,-999.0,98,-99.99,,,0.05,Acu-Link.com,2013-03-10 06:51:00,